Time;durP1;ratioP1;P1;durP2;ratioP2;P2;SDS_P1;SDS_P2;PMS_P1;PMS_P2;Temp;Humidity;BMP_temperature;BMP_pressure;BME280_temperature;BME280_humidity;BME280_pressure;Samples;Min_cycle;Max_cycle;Signal;HPM_P1;HPM_P2
2022/09/28 00:00:46;;;;;;;9.50;6.60;;;;;;;12.47;82.08;97378.23;105129;1271;74330;-24
2022/09/28 00:03:13;;;;;;;12.60;9.10;;;;;;;12.97;80.38;97375.90;105152;1271;62109;-26
2022/09/28 00:05:41;;;;;;;12.10;7.50;;;;;;;13.03;79.86;97381.60;105045;1271;63058;-25
2022/09/28 00:08:08;;;;;;;14.20;9.30;;;;;;;12.81;79.45;97380.75;104783;1274;76696;-25
2022/09/28 00:10:36;;;;;;;13.10;8.80;;;;;;;12.50;80.62;97379.52;105029;1271;75908;-24
2022/09/28 00:13:05;;;;;;;11.40;8.70;;;;;;;12.22;80.88;97384.85;104877;1271;74324;-24
2022/09/28 00:15:33;;;;;;;6.70;5.00;;;;;;;12.05;81.95;97386.27;104646;1274;64779;-24
2022/09/28 00:18:00;;;;;;;9.30;6.50;;;;;;;12.49;81.84;97388.42;105085;1271;62739;-24
2022/09/28 00:20:28;;;;;;;10.70;7.20;;;;;;;13.01;80.28;97386.72;105091;1271;76862;-22
2022/09/28 00:22:56;;;;;;;12.20;6.50;;;;;;;13.08;79.82;97387.98;105083;1271;76011;-23
2022/09/28 00:25:23;;;;;;;11.50;6.90;;;;;;;12.92;79.41;97386.20;104913;1271;74453;-23
2022/09/28 00:27:51;;;;;;;14.20;8.50;;;;;;;12.59;80.28;97383.59;105103;1272;62996;-23
2022/09/28 00:30:19;;;;;;;14.00;8.70;;;;;;;12.32;81.33;97376.44;105095;1272;61940;-23
2022/09/28 00:32:46;;;;;;;6.60;4.40;;;;;;;12.13;81.93;97375.34;105107;1271;76504;-22
2022/09/28 00:35:14;;;;;;;8.10;5.40;;;;;;;12.57;81.34;97373.59;104916;1274;75545;-23
2022/09/28 00:37:42;;;;;;;8.50;5.30;;;;;;;13.08;80.02;97373.27;104753;1271;75435;-22
2022/09/28 00:40:09;;;;;;;9.50;6.10;;;;;;;13.01;79.28;97370.25;104855;1271;62121;-23
2022/09/28 00:42:37;;;;;;;12.10;7.80;;;;;;;12.79;79.97;97371.96;105014;1271;62820;-23
2022/09/28 00:45:07;;;;;;;11.80;7.70;;;;;;;12.50;80.32;97367.23;104828;1271;75226;-23
2022/09/28 00:47:36;;;;;;;10.10;4.80;;;;;;;12.22;81.49;97363.48;105061;1271;76172;-23
2022/09/28 00:50:15;;;;;;;5.30;4.50;;;;;;;12.57;81.82;97360.30;105107;1271;73993;-22
2022/09/28 00:52:47;;;;;;;7.50;5.30;;;;;;;13.03;79.86;97351.93;104813;1271;62927;-23
2022/09/28 00:55:20;;;;;;;6.80;5.00;;;;;;;12.97;79.58;97350.70;104861;1271;61150;-23
2022/09/28 00:57:51;;;;;;;6.60;5.40;;;;;;;12.71;80.19;97350.86;104732;1271;76275;-22
2022/09/28 01:00:18;;;;;;;7.70;6.40;;;;;;;12.42;81.03;97350.29;104674;1271;75242;-22
2022/09/28 01:02:46;;;;;;;5.40;4.40;;;;;;;12.15;82.20;97343.62;105085;1271;75059;-23
2022/09/28 01:05:14;;;;;;;5.90;5.10;;;;;;;12.36;82.70;97342.38;104838;1271;63137;-26
2022/09/28 01:07:43;;;;;;;7.10;5.90;;;;;;;12.63;81.33;97346.04;104865;1271;63046;-25
2022/09/28 01:10:12;;;;;;;7.40;6.10;;;;;;;12.57;81.22;97349.14;104863;1271;75967;-25
2022/09/28 01:12:39;;;;;;;8.10;6.20;;;;;;;12.46;81.31;97351.54;105135;1271;77037;-25
2022/09/28 01:15:08;;;;;;;10.10;7.10;;;;;;;12.28;81.75;97350.61;105051;1271;75502;-24
2022/09/28 01:17:45;;;;;;;5.00;3.90;;;;;;;12.10;81.98;97348.36;104636;1271;64453;-22
2022/09/28 01:20:25;;;;;;;7.10;5.20;;;;;;;12.51;81.72;97348.20;104644;1271;62865;-22
2022/09/28 01:23:13;;;;;;;11.00;7.30;;;;;;;12.90;80.20;97348.20;104670;1274;74700;-23
2022/09/28 01:25:56;;;;;;;10.30;6.60;;;;;;;12.85;80.34;97347.36;104775;1273;76905;-23
2022/09/28 01:28:25;;;;;;;8.50;6.50;;;;;;;12.62;80.36;97346.55;104736;1271;75369;-23
2022/09/28 01:31:06;;;;;;;7.60;6.10;;;;;;;12.35;80.89;97345.30;104769;1271;63064;-22
2022/09/28 01:33:37;;;;;;;5.50;3.80;;;;;;;12.12;81.54;97346.77;105083;1271;62845;-23
2022/09/28 01:36:11;;;;;;;6.20;4.60;;;;;;;12.55;81.63;97347.34;104704;1271;76617;-24
2022/09/28 01:38:45;;;;;;;9.50;6.20;;;;;;;13.00;80.03;97344.42;104783;1271;77040;-23
2022/09/28 01:41:13;;;;;;;19.30;11.70;;;;;;;12.94;79.81;97343.83;104663;1271;74530;-23
2022/09/28 01:43:42;;;;;;;20.50;13.80;;;;;;;12.78;80.05;97346.40;104612;1271;61176;-23
2022/09/28 01:46:13;;;;;;;8.90;6.30;;;;;;;12.48;80.15;97348.36;104800;1270;62956;-22
2022/09/28 01:48:45;;;;;;;5.30;4.60;;;;;;;12.16;80.94;97345.12;104815;1271;76687;-22
2022/09/28 01:51:27;;;;;;;2.90;2.50;;;;;;;11.91;82.02;97346.59;104750;1274;76814;-23
2022/09/28 01:53:56;;;;;;;3.60;2.90;;;;;;;12.44;81.54;97343.76;104896;1271;75349;-23
2022/09/28 01:56:27;;;;;;;5.90;3.60;;;;;;;12.86;80.07;97343.70;104890;1271;61116;-23
2022/09/28 01:59:06;;;;;;;4.90;4.10;;;;;;;12.80;79.50;97346.02;104790;1271;62803;-23
2022/09/28 02:01:45;;;;;;;4.50;4.00;;;;;;;12.54;80.15;97340.10;105031;1272;75296;-23
2022/09/28 02:04:25;;;;;;;5.10;4.60;;;;;;;12.31;80.93;97334.30;104635;1271;77066;-23
2022/09/28 02:07:01;;;;;;;3.40;2.80;;;;;;;12.11;81.45;97333.33;104438;1274;74274;-22
2022/09/28 02:09:35;;;;;;;4.00;3.40;;;;;;;12.54;81.02;97332.46;104628;1272;62224;-23
2022/09/28 02:12:19;;;;;;;5.60;4.20;;;;;;;12.95;79.70;97329.85;104743;1271;61831;-23
2022/09/28 02:14:48;;;;;;;5.40;4.40;;;;;;;12.86;79.36;97327.73;104882;1271;75462;-23
2022/09/28 02:17:16;;;;;;;4.40;4.00;;;;;;;12.61;80.12;97330.87;104815;1271;75813;-23
2022/09/28 02:19:45;;;;;;;7.20;5.00;;;;;;;12.35;80.73;97329.66;105109;1271;75409;-23
2022/09/28 02:22:22;;;;;;;3.00;2.60;;;;;;;12.14;81.60;97327.41;105051;1271;64995;-23
2022/09/28 02:25:09;;;;;;;6.00;4.50;;;;;;;12.56;81.29;97325.54;105106;1271;62810;-23
2022/09/28 02:27:44;;;;;;;7.80;5.70;;;;;;;12.97;79.81;97323.36;105094;1271;76321;-23
2022/09/28 02:30:12;;;;;;;9.10;6.60;;;;;;;12.88;79.82;97322.24;104893;1271;76810;-23
2022/09/28 02:32:41;;;;;;;13.60;11.20;;;;;;;12.67;80.35;97321.98;104982;1273;74382;-23
2022/09/28 02:35:13;;;;;;;11.90;9.70;;;;;;;12.35;81.79;97323.23;104828;1271;62020;-23
2022/09/28 02:37:40;;;;;;;8.30;6.70;;;;;;;12.19;82.44;97327.17;104644;1271;61861;-23
2022/09/28 02:40:15;;;;;;;7.60;6.30;;;;;;;12.60;82.07;97333.05;104619;1271;76559;-23
2022/09/28 02:42:54;;;;;;;6.40;5.00;;;;;;;13.14;80.78;97334.73;104477;1271;75850;-23
2022/09/28 02:45:28;;;;;;;6.80;5.50;;;;;;;13.17;79.59;97327.90;104664;1271;75147;-23
2022/09/28 02:48:47;;;;;;;8.10;6.20;;;;;;;12.94;80.07;97326.07;104712;1271;61907;-23
2022/09/28 02:51:53;;;;;;;7.10;6.00;;;;;;;12.60;81.00;97329.77;104449;1274;62867;-23
2022/09/28 02:54:28;;;;;;;4.90;3.70;;;;;;;12.41;81.78;97331.79;104530;1269;76433;-23
2022/09/28 02:57:29;;;;;;;6.60;4.60;;;;;;;12.99;81.04;97332.30;104733;1271;77065;-23
2022/09/28 02:59:59;;;;;;;13.30;5.90;;;;;;;13.43;79.52;97327.96;104541;1272;75253;-23
2022/09/28 03:02:31;;;;;;;10.70;6.00;;;;;;;13.36;79.22;97328.30;104457;1272;62032;-23
2022/09/28 03:05:10;;;;;;;7.80;6.20;;;;;;;13.14;79.78;97330.84;104723;1271;63022;-24
2022/09/28 03:08:02;;;;;;;7.80;6.70;;;;;;;12.90;80.14;97333.29;104738;1271;74203;-24
2022/09/28 03:10:43;;;;;;;5.90;3.90;;;;;;;12.72;80.82;97331.42;104699;1274;74897;-24
2022/09/28 03:13:10;;;;;;;4.90;4.20;;;;;;;13.26;80.24;97330.65;104657;1271;75936;-24
2022/09/28 03:15:39;;;;;;;6.80;5.50;;;;;;;13.71;78.87;97326.36;104575;1271;62778;-24
2022/09/28 03:18:09;;;;;;;7.70;5.80;;;;;;;13.71;78.39;97322.38;104848;1271;62951;-24
2022/09/28 03:20:37;;;;;;;7.30;6.10;;;;;;;13.51;78.24;97317.09;104955;1271;76353;-24
2022/09/28 03:23:05;;;;;;;8.70;6.60;;;;;;;13.22;78.75;97313.04;104877;1274;75800;-24
2022/09/28 03:25:50;;;;;;;9.40;7.10;;;;;;;12.91;79.49;97314.09;104895;1274;75491;-24
2022/09/28 03:28:20;;;;;;;6.30;4.10;;;;;;;12.72;80.35;97315.34;105090;1271;64294;-24
2022/09/28 03:30:48;;;;;;;7.40;5.00;;;;;;;13.11;80.31;97317.83;104777;1271;60956;-23
2022/09/28 03:33:16;;;;;;;8.00;6.20;;;;;;;13.59;79.22;97322.09;104401;1274;75506;-24
2022/09/28 03:35:46;;;;;;;8.00;6.50;;;;;;;13.64;78.64;97324.39;104618;1274;76722;-24
2022/09/28 03:38:14;;;;;;;7.50;6.20;;;;;;;13.45;78.78;97325.24;104651;1271;75101;-24
2022/09/28 03:40:55;;;;;;;8.20;7.20;;;;;;;13.18;79.05;97324.45;104795;1271;62904;-24
2022/09/28 03:43:22;;;;;;;9.50;7.60;;;;;;;12.90;79.92;97323.23;104021;1271;61243;-23
2022/09/28 03:45:52;;;;;;;4.20;3.30;;;;;;;12.70;80.53;97324.89;104693;1271;74748;-24
2022/09/28 03:48:25;;;;;;;6.90;5.00;;;;;;;13.09;80.49;97322.45;104729;1271;74914;-23
2022/09/28 03:51:03;;;;;;;7.60;5.50;;;;;;;13.59;79.07;97320.55;104726;1271;75551;-23
2022/09/28 03:53:39;;;;;;;9.10;5.90;;;;;;;13.54;78.49;97323.89;104618;1271;61809;-23
2022/09/28 03:56:13;;;;;;;7.90;7.00;;;;;;;13.29;78.83;97326.02;104723;1271;61893;-24
2022/09/28 03:58:41;;;;;;;9.20;7.20;;;;;;;12.96;79.45;97321.67;104581;1271;76649;-23
2022/09/28 04:01:11;;;;;;;9.70;6.60;;;;;;;12.67;80.35;97322.80;104719;1271;76933;-23
2022/09/28 04:03:44;;;;;;;5.00;4.30;;;;;;;12.44;81.47;97323.34;104707;1274;75223;-23
2022/09/28 04:06:11;;;;;;;7.00;5.30;;;;;;;12.85;81.27;97319.88;105002;1271;62874;-23
2022/09/28 04:08:39;;;;;;;8.10;6.00;;;;;;;13.26;79.79;97314.19;104970;1271;61971;-24
2022/09/28 04:11:07;;;;;;;8.10;6.20;;;;;;;13.16;79.54;97308.11;105230;1271;75733;-23
2022/09/28 04:13:36;;;;;;;6.00;5.10;;;;;;;12.91;79.87;97306.02;104875;1271;75958;-23
2022/09/28 04:16:06;;;;;;;9.90;7.20;;;;;;;12.65;80.48;97309.71;104624;1274;74376;-23
2022/09/28 04:18:34;;;;;;;4.60;3.80;;;;;;;12.42;81.49;97311.09;104815;1271;64734;-23
2022/09/28 04:21:34;;;;;;;7.60;5.50;;;;;;;12.86;80.83;97304.87;104472;1271;63268;-23
2022/09/28 04:24:08;;;;;;;7.80;6.10;;;;;;;13.14;79.53;97302.14;104650;1272;76548;-23
2022/09/28 04:26:36;;;;;;;7.20;5.90;;;;;;;12.96;79.59;97299.21;104680;1272;76991;-23
2022/09/28 04:29:16;;;;;;;8.40;7.00;;;;;;;12.69;80.20;97298.07;104785;1271;75090;-23
2022/09/28 04:31:55;;;;;;;8.90;7.20;;;;;;;12.41;80.81;97297.13;104614;1271;61247;-23
2022/09/28 04:34:32;;;;;;;6.00;4.90;;;;;;;12.20;81.68;97299.02;104760;1271;62043;-23
2022/09/28 04:37:04;;;;;;;7.20;5.40;;;;;;;12.59;81.23;97301.08;104762;1274;76456;-23
2022/09/28 04:39:32;;;;;;;6.20;5.20;;;;;;;12.87;79.83;97297.20;104759;1271;75921;-23
2022/09/28 04:42:01;;;;;;;6.70;5.50;;;;;;;12.69;80.05;97295.39;104791;1272;73150;-23
2022/09/28 04:44:28;;;;;;;7.50;5.40;;;;;;;12.46;80.66;97295.20;104753;1271;62061;-23
2022/09/28 04:46:59;;;;;;;9.10;7.40;;;;;;;12.19;81.57;97293.02;104790;1271;63046;-23
2022/09/28 04:49:34;;;;;;;5.60;4.40;;;;;;;11.98;82.23;97291.89;104879;1271;76437;-23
2022/09/28 04:52:07;;;;;;;6.50;4.50;;;;;;;12.45;82.10;97298.95;104814;1271;76959;-23
2022/09/28 04:54:34;;;;;;;5.80;4.80;;;;;;;12.88;80.64;97295.29;104893;1274;75487;-23
2022/09/28 04:57:03;;;;;;;4.90;4.40;;;;;;;12.86;79.97;97293.38;105100;1271;62793;-23
2022/09/28 04:59:31;;;;;;;6.20;5.30;;;;;;;12.62;80.10;97294.82;105064;1271;63012;-22
2022/09/28 05:01:59;;;;;;;7.00;5.40;;;;;;;12.36;81.04;97293.46;104962;1271;76585;-23
2022/09/28 05:04:27;;;;;;;4.30;3.60;;;;;;;12.17;81.77;97292.71;104736;1274;76967;-23
2022/09/28 05:07:12;;;;;;;7.00;4.40;;;;;;;12.56;81.32;97296.13;105087;1270;75311;-23
2022/09/28 05:09:40;;;;;;;6.10;4.70;;;;;;;12.87;80.35;97293.99;105099;1271;63217;-23
2022/09/28 05:12:08;;;;;;;6.80;4.70;;;;;;;12.85;80.16;97296.50;105115;1271;62143;-23
2022/09/28 05:14:36;;;;;;;6.40;5.70;;;;;;;12.69;80.47;97292.31;105106;1271;76519;-24
2022/09/28 05:17:04;;;;;;;9.00;5.50;;;;;;;12.51;80.90;97292.16;105154;1271;77056;-24
2022/09/28 05:19:59;;;;;;;4.40;3.90;;;;;;;12.34;81.31;97282.05;105061;1271;75925;-24
2022/09/28 05:22:27;;;;;;;5.50;4.50;;;;;;;12.75;80.86;97285.20;104851;1271;62798;-24
2022/09/28 05:24:57;;;;;;;6.60;4.50;;;;;;;13.05;80.03;97278.88;104719;1272;63107;-24
2022/09/28 05:27:24;;;;;;;5.50;4.60;;;;;;;12.97;79.72;97277.17;104787;1271;75294;-24
2022/09/28 05:30:15;;;;;;;5.50;4.70;;;;;;;12.68;80.11;97273.23;104780;1271;76786;-24
2022/09/28 05:33:02;;;;;;;4.80;3.90;;;;;;;12.40;80.91;97271.60;104782;1271;74328;-24
2022/09/28 05:35:42;;;;;;;6.10;4.50;;;;;;;12.48;81.60;97273.70;104626;1271;61590;-24
2022/09/28 05:38:10;;;;;;;6.10;4.80;;;;;;;12.82;80.86;97270.78;104760;1271;63069;-24
2022/09/28 05:40:39;;;;;;;5.90;4.90;;;;;;;12.84;80.46;97274.17;104826;1271;76644;-24
2022/09/28 05:43:06;;;;;;;6.00;5.10;;;;;;;12.71;80.87;97281.06;104832;1271;77069;-24
2022/09/28 05:45:34;;;;;;;7.80;6.80;;;;;;;12.53;81.31;97282.73;104876;1271;74951;-24
2022/09/28 05:48:03;;;;;;;4.90;3.30;;;;;;;12.38;82.02;97280.92;105134;1271;64413;-24
2022/09/28 05:50:30;;;;;;;5.10;4.30;;;;;;;12.82;81.38;97276.84;105167;1271;63053;-24
2022/09/28 05:52:59;;;;;;;5.30;4.50;;;;;;;13.27;79.88;97270.59;104816;1274;76890;-24
2022/09/28 05:55:26;;;;;;;6.20;4.90;;;;;;;13.24;79.17;97259.42;104794;1271;76010;-24
2022/09/28 05:57:58;;;;;;;6.20;5.50;;;;;;;13.04;79.62;97247.36;104708;1271;75542;-24
2022/09/28 06:00:27;;;;;;;7.10;4.40;;;;;;;12.75;80.14;97240.28;104409;1271;63092;-24
2022/09/28 06:02:59;;;;;;;5.10;4.40;;;;;;;12.45;81.28;97240.05;104706;1272;61739;-23
2022/09/28 06:05:30;;;;;;;6.20;5.20;;;;;;;12.86;81.32;97236.98;104620;1271;75521;-24
2022/09/28 06:07:58;;;;;;;7.10;4.40;;;;;;;13.18;80.09;97235.81;104801;1271;76314;-23
2022/09/28 06:10:26;;;;;;;5.30;4.70;;;;;;;13.17;79.93;97241.83;104697;1271;75384;-24
2022/09/28 06:12:58;;;;;;;6.40;5.60;;;;;;;13.01;79.96;97242.30;104611;1271;63099;-23
2022/09/28 06:15:27;;;;;;;7.20;6.10;;;;;;;12.81;80.73;97251.17;104649;1271;61968;-24
2022/09/28 06:18:00;;;;;;;4.60;3.70;;;;;;;12.70;81.46;97257.23;104650;1271;76434;-24
2022/09/28 06:20:57;;;;;;;5.50;4.50;;;;;;;13.35;80.22;97263.79;104343;1272;76992;-24
2022/09/28 06:23:33;;;;;;;6.10;4.70;;;;;;;13.79;79.00;97264.23;104715;1271;74334;-24
2022/09/28 06:26:01;;;;;;;7.20;5.20;;;;;;;13.81;78.77;97266.30;104892;1271;61895;-24
2022/09/28 06:28:29;;;;;;;7.20;6.10;;;;;;;13.71;79.09;97268.52;104805;1271;62807;-24
2022/09/28 06:31:00;;;;;;;8.30;6.80;;;;;;;13.55;79.20;97261.38;104661;1271;74376;-24
2022/09/28 06:33:31;;;;;;;6.90;5.60;;;;;;;13.35;79.35;97253.13;104825;1271;76691;-24
2022/09/28 06:35:58;;;;;;;5.70;4.10;;;;;;;13.15;79.66;97249.36;104670;1271;75377;-24
2022/09/28 06:38:26;;;;;;;6.20;4.30;;;;;;;13.55;79.63;97255.65;104715;1271;61999;-24
2022/09/28 06:40:56;;;;;;;5.30;4.50;;;;;;;13.93;78.21;97257.09;104844;1272;62878;-24
2022/09/28 06:43:24;;;;;;;11.20;4.90;;;;;;;13.90;77.49;97254.69;104653;1271;75698;-24
2022/09/28 06:46:11;;;;;;;6.20;5.20;;;;;;;13.58;77.74;97255.92;104797;1274;75981;-24
2022/09/28 06:48:39;;;;;;;7.90;6.50;;;;;;;13.26;78.72;97254.40;104768;1277;75414;-24
2022/09/28 06:51:10;;;;;;;4.20;3.70;;;;;;;13.01;79.58;97252.63;104907;1271;63624;-24
2022/09/28 06:53:47;;;;;;;5.20;4.60;;;;;;;13.34;79.72;97249.39;104792;1271;63183;-23
2022/09/28 06:56:41;;;;;;;8.00;4.90;;;;;;;13.66;78.49;97244.17;104675;1271;76759;-23
2022/09/28 06:59:09;;;;;;;8.00;5.80;;;;;;;13.54;78.49;97244.88;104711;1274;74916;-23
2022/09/28 07:01:37;;;;;;;8.30;6.80;;;;;;;13.29;78.99;97249.34;104682;1271;73710;-23
2022/09/28 07:04:25;;;;;;;7.90;6.50;;;;;;;13.00;80.09;97256.39;104735;1271;62940;-23
2022/09/28 07:07:32;;;;;;;6.00;4.40;;;;;;;12.85;80.99;97258.04;104918;1271;62962;-22
2022/09/28 07:10:10;;;;;;;9.50;5.20;;;;;;;13.42;80.44;97257.34;104926;1271;76628;-23
2022/09/28 07:12:43;;;;;;;6.60;5.30;;;;;;;13.79;79.01;97254.40;104761;1271;75949;-23
2022/09/28 07:15:23;;;;;;;8.20;5.60;;;;;;;13.74;78.69;97245.44;104817;1272;75147;-23
2022/09/28 07:17:58;;;;;;;7.20;5.50;;;;;;;13.51;79.02;97246.73;104636;1271;61242;-23
2022/09/28 07:20:32;;;;;;;11.00;6.80;;;;;;;13.21;79.70;97249.77;104549;1274;61723;-23
2022/09/28 07:23:17;;;;;;;5.20;3.20;;;;;;;12.98;80.84;97258.22;104705;1271;76484;-23
2022/09/28 07:26:18;;;;;;;9.70;5.30;;;;;;;13.65;80.36;97257.33;104487;1272;77159;-23
2022/09/28 07:29:14;;;;;;;5.70;4.50;;;;;;;14.09;79.11;97260.67;104841;1271;74313;-23
2022/09/28 07:32:15;;;;;;;8.60;4.60;;;;;;;13.94;78.41;97259.05;104784;1271;61169;-23
2022/09/28 07:35:12;;;;;;;5.90;5.30;;;;;;;13.65;79.54;97258.08;104964;1270;63280;-24
2022/09/28 07:38:05;;;;;;;7.10;5.80;;;;;;;13.38;80.31;97256.98;105080;1271;76571;-23
2022/09/28 07:43:25;;;;;;;6.40;4.60;;;;;;;13.80;80.39;97257.35;104808;1271;73005;-23
2022/09/28 07:45:53;;;;;;;6.40;5.20;;;;;;;14.22;79.51;97263.79;104716;1271;63079;-23
2022/09/28 07:48:21;;;;;;;11.30;6.80;;;;;;;14.20;78.78;97266.99;104648;1272;61980;-24
2022/09/28 07:51:10;;;;;;;9.40;7.80;;;;;;;13.96;79.02;97269.39;104791;1271;76696;-23
2022/09/28 07:53:40;;;;;;;9.50;7.90;;;;;;;13.69;79.60;97268.17;104733;1274;77132;-23
2022/09/28 07:56:28;;;;;;;4.90;3.90;;;;;;;13.43;80.80;97268.38;104762;1272;73318;-23
2022/09/28 07:59:17;;;;;;;6.30;4.40;;;;;;;13.96;80.56;97265.75;104857;1271;63121;-23
2022/09/28 08:02:11;;;;;;;6.50;4.70;;;;;;;14.28;78.68;97266.52;104859;1271;62962;-23
2022/09/28 08:04:40;;;;;;;9.40;5.70;;;;;;;14.10;78.63;97265.26;104676;1271;75367;-23
2022/09/28 08:07:13;;;;;;;12.40;7.10;;;;;;;13.80;79.10;97270.11;104686;1271;76991;-23
2022/09/28 08:09:42;;;;;;;11.50;7.40;;;;;;;13.48;80.16;97269.80;104792;1271;75380;-23
2022/09/28 08:12:25;;;;;;;4.90;3.90;;;;;;;13.25;81.06;97265.62;104843;1271;63930;-23
2022/09/28 08:15:18;;;;;;;8.40;5.40;;;;;;;13.77;80.35;97267.75;104877;1271;62993;-23
2022/09/28 08:17:53;;;;;;;7.90;5.00;;;;;;;14.15;79.68;97277.96;104708;1274;76586;-22
2022/09/28 08:23:18;;;;;;;15.50;10.40;;;;;;;13.71;80.30;97284.88;104609;1274;75563;-22
2022/09/28 08:25:50;;;;;;;14.40;9.30;;;;;;;13.52;81.01;97292.16;104658;1271;62972;-22
2022/09/28 08:28:19;;;;;;;4.60;3.30;;;;;;;13.33;81.42;97295.05;104642;1271;62757;-22
2022/09/28 08:30:47;;;;;;;7.50;3.90;;;;;;;13.71;81.24;97293.81;104845;1271;74875;-24
2022/09/28 08:33:42;;;;;;;5.30;4.10;;;;;;;14.12;79.55;97283.71;104554;1271;77369;-22
2022/09/28 08:36:28;;;;;;;5.20;4.00;;;;;;;13.98;79.35;97274.27;104769;1272;75446;-22
2022/09/28 08:38:55;;;;;;;5.80;4.40;;;;;;;13.69;79.95;97270.98;104833;1274;63241;-22
2022/09/28 08:41:49;;;;;;;5.90;4.60;;;;;;;13.32;81.10;97268.75;105030;1271;61985;-22
2022/09/28 08:44:46;;;;;;;4.50;3.50;;;;;;;13.06;82.27;97262.48;104466;1271;76529;-23
2022/09/28 08:51:25;;;;;;;6.40;4.10;;;;;;;13.69;80.72;97243.83;105082;1271;75447;-22
2022/09/28 08:54:22;;;;;;;5.00;4.00;;;;;;;13.45;81.45;97244.63;104798;1271;63074;-23
2022/09/28 08:57:01;;;;;;;4.50;3.60;;;;;;;13.14;82.76;97236.23;104787;1271;62717;-24
2022/09/28 08:59:53;;;;;;;5.50;3.60;;;;;;;13.06;83.84;97236.53;105137;1271;76347;-23
2022/09/28 09:02:32;;;;;;;4.30;3.20;;;;;;;13.65;82.92;97236.30;104915;1273;76988;-23
2022/09/28 09:05:15;;;;;;;4.50;3.90;;;;;;;13.80;81.60;97237.15;104664;1271;75246;-23
2022/09/28 09:08:18;;;;;;;5.70;4.60;;;;;;;13.67;82.40;97236.82;104612;1274;63233;-23
2022/09/28 09:10:47;;;;;;;4.00;3.10;;;;;;;13.61;83.10;97240.23;105140;1274;63002;-23
2022/09/28 09:13:58;;;;;;;4.60;3.30;;;;;;;13.98;82.05;97243.00;104801;1271;76547;-23
2022/09/28 09:16:55;;;;;;;4.20;3.50;;;;;;;14.21;81.30;97245.98;105154;1271;76997;-23
2022/09/28 09:19:53;;;;;;;3.50;3.20;;;;;;;14.02;81.26;97255.98;105015;1271;74383;-23
2022/09/28 09:22:52;;;;;;;4.40;3.80;;;;;;;13.76;81.97;97267.19;104660;1274;61942;-23
2022/09/28 09:25:45;;;;;;;3.20;2.40;;;;;;;13.61;82.77;97268.55;104781;1271;61817;-25
2022/09/28 09:28:17;;;;;;;2.80;2.50;;;;;;;14.21;81.75;97278.37;104777;1272;74498;-25
2022/09/28 09:31:07;;;;;;;4.20;3.80;;;;;;;14.62;80.61;97270.29;104749;1271;77130;-25
2022/09/28 09:33:50;;;;;;;5.20;3.90;;;;;;;14.58;80.31;97264.06;104790;1274;75434;-26
2022/09/28 09:36:56;;;;;;;6.30;4.30;;;;;;;14.29;81.05;97265.16;104540;1280;62261;-26
2022/09/28 09:40:08;;;;;;;3.70;2.60;;;;;;;14.15;81.84;97262.22;104230;1280;63160;-25
2022/09/28 09:43:16;;;;;;;6.20;5.40;;;;;;;14.83;81.14;97262.45;104150;1280;74667;-26
2022/09/28 09:46:00;;;;;;;8.40;6.10;;;;;;;15.19;79.38;97260.42;104170;1280;76752;-25
2022/09/28 09:49:12;;;;;;;6.20;5.20;;;;;;;15.01;79.38;97257.76;103515;1280;75595;-26
2022/09/28 09:51:43;;;;;;;5.40;4.00;;;;;;;14.74;79.81;97256.25;104249;1278;62764;-25
2022/09/28 09:54:33;;;;;;;7.00;3.70;;;;;;;14.48;80.69;97258.50;104217;1279;62928;-25
2022/09/28 09:57:17;;;;;;;2.60;2.10;;;;;;;14.33;81.68;97265.39;103996;1280;76593;-25
2022/09/28 10:00:01;;;;;;;3.70;2.80;;;;;;;15.12;80.59;97259.67;104030;1280;76478;-25
2022/09/28 10:02:55;;;;;;;3.30;3.00;;;;;;;15.53;79.09;97261.36;104136;1280;75845;-25
2022/09/28 10:05:30;;;;;;;4.00;3.10;;;;;;;15.36;78.22;97266.02;104160;1280;61759;-25
2022/09/28 10:08:09;;;;;;;4.00;3.30;;;;;;;15.03;79.10;97263.29;104280;1275;63053;-25
2022/09/28 10:10:44;;;;;;;3.90;3.10;;;;;;;14.79;80.20;97261.80;104768;1272;76803;-25
2022/09/28 10:13:12;;;;;;;2.20;1.70;;;;;;;14.63;80.95;97261.30;104699;1271;77001;-25
2022/09/28 10:15:40;;;;;;;2.50;1.90;;;;;;;15.11;80.80;97263.59;104841;1271;75398;-25
2022/09/28 10:18:20;;;;;;;3.20;2.30;;;;;;;15.60;78.57;97266.25;104777;1271;63123;-25
2022/09/28 10:21:14;;;;;;;3.30;1.90;;;;;;;15.45;77.93;97268.00;104973;1274;62638;-25
2022/09/28 10:23:59;;;;;;;3.10;2.60;;;;;;;14.99;79.02;97271.74;104729;1274;75552;-25
2022/09/28 10:26:38;;;;;;;3.40;2.90;;;;;;;14.64;79.97;97272.48;104788;1272;76850;-25
2022/09/28 10:29:16;;;;;;;2.10;1.70;;;;;;;14.42;81.23;97272.45;104854;1274;75308;-25
2022/09/28 10:31:49;;;;;;;3.60;1.90;;;;;;;14.87;81.30;97272.11;104723;1271;61171;-25
2022/09/28 10:34:39;;;;;;;2.30;2.10;;;;;;;15.25;79.99;97268.34;104683;1271;62796;-25
2022/09/28 10:37:12;;;;;;;2.80;2.30;;;;;;;15.07;79.73;97270.92;104734;1271;75548;-25
2022/09/28 10:39:59;;;;;;;2.40;2.20;;;;;;;14.67;80.96;97278.05;104770;1271;75951;-25
2022/09/28 10:42:30;;;;;;;2.60;1.80;;;;;;;14.36;82.55;97282.08;104644;1272;75396;-25
2022/09/28 10:45:01;;;;;;;2.70;1.80;;;;;;;14.70;82.78;97280.85;104657;1274;62076;-25
2022/09/28 10:47:34;;;;;;;2.30;2.00;;;;;;;14.90;81.68;97278.77;104639;1274;62921;-25
2022/09/28 10:50:05;;;;;;;2.90;2.40;;;;;;;14.84;81.85;97277.90;104783;1271;76957;-25
2022/09/28 10:52:39;;;;;;;1.90;1.70;;;;;;;14.64;83.27;97280.66;104585;1272;75060;-25
2022/09/28 10:55:31;;;;;;;2.00;1.70;;;;;;;14.51;83.83;97281.85;104694;1272;75411;-25
2022/09/28 10:57:58;;;;;;;2.80;1.80;;;;;;;15.08;82.11;97283.38;104855;1272;61228;-25
2022/09/28 11:00:41;;;;;;;2.90;1.80;;;;;;;15.12;81.03;97283.44;105008;1272;62878;-25
2022/09/28 11:03:25;;;;;;;2.40;1.90;;;;;;;14.88;81.45;97282.11;104585;1274;77069;-24
2022/09/28 11:05:56;;;;;;;2.50;1.80;;;;;;;14.67;82.58;97283.22;104619;1271;76984;-25
2022/09/28 11:08:27;;;;;;;4.50;1.10;;;;;;;14.66;83.81;97277.65;104803;1271;74258;-25
2022/09/28 11:11:03;;;;;;;2.70;1.30;;;;;;;15.35;82.78;97275.98;104702;1271;63132;-24
2022/09/28 11:13:37;;;;;;;1.80;1.10;;;;;;;15.89;80.93;97273.86;104759;1271;62047;-24
2022/09/28 11:16:07;;;;;;;1.50;1.30;;;;;;;15.96;79.09;97277.58;104589;1274;75659;-24
2022/09/28 11:18:35;;;;;;;1.30;1.20;;;;;;;15.71;79.44;97283.08;104969;1271;76556;-24
2022/09/28 11:21:30;;;;;;;2.00;1.30;;;;;;;15.44;79.78;97296.81;104795;1272;75392;-24
2022/09/28 11:24:06;;;;;;;1.20;0.90;;;;;;;15.19;80.43;97303.37;104709;1274;64717;-26
2022/09/28 11:26:39;;;;;;;;;;;;;;;15.40;79.77;97307.47;104988;1271;63012;-25
2022/09/28 11:29:37;;;;;;;1.30;1.10;;;;;;;15.33;79.57;97304.79;104705;1271;76880;-25
2022/09/28 11:32:17;;;;;;;1.00;0.90;;;;;;;14.99;80.28;97304.89;104816;1271;75991;-25
2022/09/28 11:35:03;;;;;;;1.00;0.90;;;;;;;14.63;81.25;97305.35;104763;1272;74315;-25
2022/09/28 11:37:45;;;;;;;3.60;1.10;;;;;;;14.30;81.93;97305.93;104788;1271;63572;-24
2022/09/28 11:40:26;;;;;;;1.10;0.90;;;;;;;14.58;80.77;97313.59;104719;1272;63019;-23
2022/09/28 11:43:30;;;;;;;1.90;1.40;;;;;;;14.69;80.02;97316.92;104914;1271;75587;-23
2022/09/28 11:46:20;;;;;;;2.70;1.90;;;;;;;14.46;80.34;97325.94;104840;1274;77022;-22
2022/09/28 11:48:54;;;;;;;2.20;1.80;;;;;;;14.14;81.11;97332.55;104771;1275;74376;-23
2022/09/28 11:51:30;;;;;;;;;;;;;;;13.97;81.92;97332.67;104788;1271;65208;-23
2022/09/28 11:54:00;;;;;;;2.40;2.00;;;;;;;14.30;80.71;97334.56;104377;1274;62054;-23
2022/09/28 11:56:37;;;;;;;2.50;2.30;;;;;;;14.61;79.52;97336.05;104771;1272;76345;-22
2022/09/28 11:59:26;;;;;;;3.10;2.80;;;;;;;14.58;79.80;97340.53;104331;1272;75878;-23
2022/09/28 12:02:24;;;;;;;4.40;3.30;;;;;;;14.32;78.05;97329.71;104712;1274;74339;-23
2022/09/28 12:05:09;;;;;;;2.20;2.00;;;;;;;13.92;79.61;97333.48;104776;1272;64648;-23
2022/09/28 12:07:45;;;;;;;2.80;2.20;;;;;;;14.18;77.01;97330.26;104792;1274;63304;-23
2022/09/28 12:10:47;;;;;;;3.20;2.60;;;;;;;14.08;77.03;97337.46;104672;1274;76582;-23
2022/09/28 12:13:26;;;;;;;3.50;2.70;;;;;;;13.80;77.31;97343.04;104666;1271;76951;-23
2022/09/28 12:16:08;;;;;;;4.60;2.40;;;;;;;13.46;78.23;97347.84;104686;1272;74443;-23
2022/09/28 12:19:03;;;;;;;2.10;1.70;;;;;;;13.08;78.80;97357.83;104710;1271;61162;-24